Terminal Aerodrome Forecast
Issued by NWS Wilmington, OH

Current Version | Previous Version | Graphics & Text | Print | Product List | Glossary On
Versions: 1 2 3 4 5 6 7 8 9 10 11 12 13 14 15 16 17 18 19 20 21 22 23 24 25 26 27
000
FTUS41 KILN 240542
TAFCVG
TAF
KCVG 240542Z 2406/2512 16010KT P6SM SCT080 BKN200
     FM240900 18010KT P6SM SCT080 BKN200 WS020/21040KT
     FM241300 18012G18KT P6SM SCT050 BKN200
     FM241500 19014G24KT P6SM SCT050 BKN200
     FM242300 20014G24KT P6SM -SHRA VCTS BKN050CB
     FM250400 26014G22KT P6SM OVC025=

USA.gov is the U.S. government's official web portal to all federal, state and local government web resources and services.